sensor_id;sensor_type;location;lat;lon;timestamp;temperature;humidity
34985;DHT22;21190;58.750;17.004;2023-11-21T00:00:05;0.80;99.90
34985;DHT22;21190;58.750;17.004;2023-11-21T00:02:37;0.80;99.90
34985;DHT22;21190;58.750;17.004;2023-11-21T00:05:11;0.80;99.90
34985;DHT22;21190;58.750;17.004;2023-11-21T00:07:40;0.80;99.90
34985;DHT22;21190;58.750;17.004;2023-11-21T00:10:09;0.70;99.90
34985;DHT22;21190;58.750;17.004;2023-11-21T00:12:37;0.70;99.90
34985;DHT22;21190;58.750;17.004;2023-11-21T00:15:05;0.70;99.90
34985;DHT22;21190;58.750;17.004;2023-11-21T00:17:32;0.60;99.90
34985;DHT22;21190;58.750;17.004;2023-11-21T00:19:59;0.60;99.90
34985;DHT22;21190;58.750;17.004;2023-11-21T00:22:26;0.60;99.90
34985;DHT22;21190;58.750;17.004;2023-11-21T00:24:53;0.60;99.90
34985;DHT22;21190;58.750;17.004;2023-11-21T00:27:20;0.60;99.90
34985;DHT22;21190;58.750;17.004;2023-11-21T00:29:47;0.60;99.90
34985;DHT22;21190;58.750;17.004;2023-11-21T00:32:14;0.60;99.90
34985;DHT22;21190;58.750;17.004;2023-11-21T00:34:41;0.60;99.90
34985;DHT22;21190;58.750;17.004;2023-11-21T00:37:09;0.60;99.90
34985;DHT22;21190;58.750;17.004;2023-11-21T00:39:36;0.60;99.90
34985;DHT22;21190;58.750;17.004;2023-11-21T00:42:03;0.50;99.90
34985;DHT22;21190;58.750;17.004;2023-11-21T00:44:31;0.50;99.90
34985;DHT22;21190;58.750;17.004;2023-11-21T00:46:58;0.50;99.90
34985;DHT22;21190;58.750;17.004;2023-11-21T00:49:25;0.50;99.90
34985;DHT22;21190;58.750;17.004;2023-11-21T00:51:53;0.50;99.90
34985;DHT22;21190;58.750;17.004;2023-11-21T00:54:20;0.40;99.90
34985;DHT22;21190;58.750;17.004;2023-11-21T00:56:47;0.40;99.90
34985;DHT22;21190;58.750;17.004;2023-11-21T00:59:14;0.40;99.90
34985;DHT22;21190;58.750;17.004;2023-11-21T01:01:41;0.40;99.90
34985;DHT22;21190;58.750;17.004;2023-11-21T01:04:08;0.40;99.90
34985;DHT22;21190;58.750;17.004;2023-11-21T01:06:35;0.40;99.90
34985;DHT22;21190;58.750;17.004;2023-11-21T01:09:03;0.30;99.90
34985;DHT22;21190;58.750;17.004;2023-11-21T01:11:35;0.30;99.90
34985;DHT22;21190;58.750;17.004;2023-11-21T01:14:04;0.30;99.90
34985;DHT22;21190;58.750;17.004;2023-11-21T01:16:31;0.30;99.90
34985;DHT22;21190;58.750;17.004;2023-11-21T01:19:01;0.20;99.90
34985;DHT22;21190;58.750;17.004;2023-11-21T01:21:29;0.20;99.90
34985;DHT22;21190;58.750;17.004;2023-11-21T01:23:56;0.20;99.90
34985;DHT22;21190;58.750;17.004;2023-11-21T01:26:23;0.10;99.90
34985;DHT22;21190;58.750;17.004;2023-11-21T01:28:50;0.10;99.90
34985;DHT22;21190;58.750;17.004;2023-11-21T01:31:17;0.10;99.90
34985;DHT22;21190;58.750;17.004;2023-11-21T01:33:44;0.10;99.90
34985;DHT22;21190;58.750;17.004;2023-11-21T01:36:11;0.10;99.90
34985;DHT22;21190;58.750;17.004;2023-11-21T01:38:38;0.10;99.90
34985;DHT22;21190;58.750;17.004;2023-11-21T01:41:05;0.10;99.90
34985;DHT22;21190;58.750;17.004;2023-11-21T01:43:38;0.10;99.90
34985;DHT22;21190;58.750;17.004;2023-11-21T01:46:05;0.10;99.90
34985;DHT22;21190;58.750;17.004;2023-11-21T01:48:33;0.10;99.90
34985;DHT22;21190;58.750;17.004;2023-11-21T01:51:02;0.10;99.90
34985;DHT22;21190;58.750;17.004;2023-11-21T01:53:29;0.10;99.90
34985;DHT22;21190;58.750;17.004;2023-11-21T01:55:56;0.00;99.90
34985;DHT22;21190;58.750;17.004;2023-11-21T01:58:24;0.00;99.90
34985;DHT22;21190;58.750;17.004;2023-11-21T02:00:51;0.00;99.90
34985;DHT22;21190;58.750;17.004;2023-11-21T02:03:21;-0.10;99.90
34985;DHT22;21190;58.750;17.004;2023-11-21T02:05:49;0.00;99.90
34985;DHT22;21190;58.750;17.004;2023-11-21T02:08:16;0.00;99.90
34985;DHT22;21190;58.750;17.004;2023-11-21T02:10:43;0.00;99.90
34985;DHT22;21190;58.750;17.004;2023-11-21T02:13:10;0.10;99.90
34985;DHT22;21190;58.750;17.004;2023-11-21T02:15:38;0.10;99.90
34985;DHT22;21190;58.750;17.004;2023-11-21T02:18:05;0.10;99.90
34985;DHT22;21190;58.750;17.004;2023-11-21T02:20:33;0.10;99.90
34985;DHT22;21190;58.750;17.004;2023-11-21T02:23:02;0.10;99.90
34985;DHT22;21190;58.750;17.004;2023-11-21T02:25:30;0.10;99.90
34985;DHT22;21190;58.750;17.004;2023-11-21T02:28:00;0.20;99.90
34985;DHT22;21190;58.750;17.004;2023-11-21T02:30:28;0.30;99.90
34985;DHT22;21190;58.750;17.004;2023-11-21T02:32:55;0.30;99.90
34985;DHT22;21190;58.750;17.004;2023-11-21T02:35:25;0.30;99.90
34985;DHT22;21190;58.750;17.004;2023-11-21T02:37:53;0.40;99.90
34985;DHT22;21190;58.750;17.004;2023-11-21T02:40:21;0.40;99.90
34985;DHT22;21190;58.750;17.004;2023-11-21T02:42:48;0.50;99.90
34985;DHT22;21190;58.750;17.004;2023-11-21T02:45:18;0.50;99.90
34985;DHT22;21190;58.750;17.004;2023-11-21T02:47:47;0.60;99.90
34985;DHT22;21190;58.750;17.004;2023-11-21T02:50:16;0.60;99.90
34985;DHT22;21190;58.750;17.004;2023-11-21T02:52:43;0.60;99.90
34985;DHT22;21190;58.750;17.004;2023-11-21T02:55:10;0.70;99.90
34985;DHT22;21190;58.750;17.004;2023-11-21T02:57:37;0.70;99.90
34985;DHT22;21190;58.750;17.004;2023-11-21T03:00:05;0.80;99.90
34985;DHT22;21190;58.750;17.004;2023-11-21T03:02:34;0.80;99.90
34985;DHT22;21190;58.750;17.004;2023-11-21T03:05:07;0.80;99.90
34985;DHT22;21190;58.750;17.004;2023-11-21T03:07:39;0.90;99.90
34985;DHT22;21190;58.750;17.004;2023-11-21T03:10:08;0.90;99.90
34985;DHT22;21190;58.750;17.004;2023-11-21T03:12:39;1.00;99.90
34985;DHT22;21190;58.750;17.004;2023-11-21T03:15:07;1.00;99.90
34985;DHT22;21190;58.750;17.004;2023-11-21T03:17:34;1.10;99.90
34985;DHT22;21190;58.750;17.004;2023-11-21T03:20:02;1.10;99.90
34985;DHT22;21190;58.750;17.004;2023-11-21T03:22:30;1.10;99.90
34985;DHT22;21190;58.750;17.004;2023-11-21T03:24:57;1.10;99.90
34985;DHT22;21190;58.750;17.004;2023-11-21T03:27:25;1.10;99.90
34985;DHT22;21190;58.750;17.004;2023-11-21T03:29:52;1.20;99.90
34985;DHT22;21190;58.750;17.004;2023-11-21T03:32:19;1.20;99.90
34985;DHT22;21190;58.750;17.004;2023-11-21T03:35:06;1.20;99.90
34985;DHT22;21190;58.750;17.004;2023-11-21T03:37:34;1.20;99.90
34985;DHT22;21190;58.750;17.004;2023-11-21T03:40:01;1.20;99.90
34985;DHT22;21190;58.750;17.004;2023-11-21T03:42:32;1.20;99.90
34985;DHT22;21190;58.750;17.004;2023-11-21T03:44:59;1.20;99.90
34985;DHT22;21190;58.750;17.004;2023-11-21T03:47:27;1.20;99.90
34985;DHT22;21190;58.750;17.004;2023-11-21T03:49:55;1.20;99.90
34985;DHT22;21190;58.750;17.004;2023-11-21T03:52:22;1.30;99.90
34985;DHT22;21190;58.750;17.004;2023-11-21T03:54:49;1.30;99.90
34985;DHT22;21190;58.750;17.004;2023-11-21T03:57:16;1.40;99.90
34985;DHT22;21190;58.750;17.004;2023-11-21T03:59:43;1.40;99.90
34985;DHT22;21190;58.750;17.004;2023-11-21T04:02:10;1.40;99.90
34985;DHT22;21190;58.750;17.004;2023-11-21T04:04:37;1.40;99.90
34985;DHT22;21190;58.750;17.004;2023-11-21T04:07:05;1.40;99.90
34985;DHT22;21190;58.750;17.004;2023-11-21T04:09:32;1.40;99.90
34985;DHT22;21190;58.750;17.004;2023-11-21T04:11:59;1.40;99.90
34985;DHT22;21190;58.750;17.004;2023-11-21T04:14:26;1.50;99.90
34985;DHT22;21190;58.750;17.004;2023-11-21T04:16:53;1.50;99.90
34985;DHT22;21190;58.750;17.004;2023-11-21T04:19:21;1.40;99.90
34985;DHT22;21190;58.750;17.004;2023-11-21T04:21:48;1.50;99.90
34985;DHT22;21190;58.750;17.004;2023-11-21T04:24:15;1.50;99.90
34985;DHT22;21190;58.750;17.004;2023-11-21T04:26:43;1.40;99.90
34985;DHT22;21190;58.750;17.004;2023-11-21T04:29:10;1.50;99.90
34985;DHT22;21190;58.750;17.004;2023-11-21T04:31:37;1.50;99.90
34985;DHT22;21190;58.750;17.004;2023-11-21T04:34:05;1.60;99.90
34985;DHT22;21190;58.750;17.004;2023-11-21T04:36:32;1.60;99.90
34985;DHT22;21190;58.750;17.004;2023-11-21T04:38:59;1.60;99.90
34985;DHT22;21190;58.750;17.004;2023-11-21T04:41:26;1.60;99.90
34985;DHT22;21190;58.750;17.004;2023-11-21T04:43:53;1.60;99.90
34985;DHT22;21190;58.750;17.004;2023-11-21T04:46:20;1.60;99.90
34985;DHT22;21190;58.750;17.004;2023-11-21T04:48:47;1.60;99.90
34985;DHT22;21190;58.750;17.004;2023-11-21T04:51:14;1.60;99.90
34985;DHT22;21190;58.750;17.004;2023-11-21T04:53:41;1.60;99.90
34985;DHT22;21190;58.750;17.004;2023-11-21T04:56:08;1.60;99.90
34985;DHT22;21190;58.750;17.004;2023-11-21T04:58:35;1.60;99.90
34985;DHT22;21190;58.750;17.004;2023-11-21T05:01:02;1.60;99.90
34985;DHT22;21190;58.750;17.004;2023-11-21T05:03:34;1.60;99.90
34985;DHT22;21190;58.750;17.004;2023-11-21T05:06:01;1.60;99.90
34985;DHT22;21190;58.750;17.004;2023-11-21T05:08:29;1.60;99.90
34985;DHT22;21190;58.750;17.004;2023-11-21T05:10:56;1.60;99.90
34985;DHT22;21190;58.750;17.004;2023-11-21T05:13:23;1.60;99.90
34985;DHT22;21190;58.750;17.004;2023-11-21T05:15:55;1.60;99.90
34985;DHT22;21190;58.750;17.004;2023-11-21T05:18:25;1.60;99.90
34985;DHT22;21190;58.750;17.004;2023-11-21T05:20:56;1.60;99.90
34985;DHT22;21190;58.750;17.004;2023-11-21T05:23:23;1.60;99.90
34985;DHT22;21190;58.750;17.004;2023-11-21T05:25:50;1.60;99.90
34985;DHT22;21190;58.750;17.004;2023-11-21T05:28:17;1.60;99.90
34985;DHT22;21190;58.750;17.004;2023-11-21T05:30:44;1.60;99.90
34985;DHT22;21190;58.750;17.004;2023-11-21T05:33:11;1.60;99.90
34985;DHT22;21190;58.750;17.004;2023-11-21T05:35:39;1.60;99.90
34985;DHT22;21190;58.750;17.004;2023-11-21T05:38:06;1.50;99.90
34985;DHT22;21190;58.750;17.004;2023-11-21T05:40:33;1.50;99.90
34985;DHT22;21190;58.750;17.004;2023-11-21T05:43:00;1.50;99.90
34985;DHT22;21190;58.750;17.004;2023-11-21T05:45:27;1.50;99.90
34985;DHT22;21190;58.750;17.004;2023-11-21T05:47:58;1.50;99.90
34985;DHT22;21190;58.750;17.004;2023-11-21T05:50:25;1.50;99.90
34985;DHT22;21190;58.750;17.004;2023-11-21T05:52:52;1.50;99.90
34985;DHT22;21190;58.750;17.004;2023-11-21T05:55:22;1.50;99.90
34985;DHT22;21190;58.750;17.004;2023-11-21T05:57:52;1.50;99.90
34985;DHT22;21190;58.750;17.004;2023-11-21T06:00:20;1.50;99.90
34985;DHT22;21190;58.750;17.004;2023-11-21T06:02:53;1.50;99.90
34985;DHT22;21190;58.750;17.004;2023-11-21T06:05:23;1.50;99.90
34985;DHT22;21190;58.750;17.004;2023-11-21T06:07:51;1.50;99.90
34985;DHT22;21190;58.750;17.004;2023-11-21T06:10:22;1.40;99.90
34985;DHT22;21190;58.750;17.004;2023-11-21T06:12:52;1.50;99.90
34985;DHT22;21190;58.750;17.004;2023-11-21T06:15:20;1.50;99.90
34985;DHT22;21190;58.750;17.004;2023-11-21T06:17:49;1.50;99.90
34985;DHT22;21190;58.750;17.004;2023-11-21T06:20:19;1.60;99.90
34985;DHT22;21190;58.750;17.004;2023-11-21T06:22:49;1.60;99.90
34985;DHT22;21190;58.750;17.004;2023-11-21T06:25:17;1.60;99.90
34985;DHT22;21190;58.750;17.004;2023-11-21T06:27:46;1.60;99.90
34985;DHT22;21190;58.750;17.004;2023-11-21T06:30:15;1.50;99.90
34985;DHT22;21190;58.750;17.004;2023-11-21T06:32:43;1.60;99.90
34985;DHT22;21190;58.750;17.004;2023-11-21T06:35:13;1.60;99.90
34985;DHT22;21190;58.750;17.004;2023-11-21T06:37:43;1.60;99.90
34985;DHT22;21190;58.750;17.004;2023-11-21T06:40:18;1.50;99.90
34985;DHT22;21190;58.750;17.004;2023-11-21T06:42:47;1.50;99.90
34985;DHT22;21190;58.750;17.004;2023-11-21T06:45:16;1.50;99.90
34985;DHT22;21190;58.750;17.004;2023-11-21T06:47:43;1.50;99.90
34985;DHT22;21190;58.750;17.004;2023-11-21T06:50:11;1.50;99.90
34985;DHT22;21190;58.750;17.004;2023-11-21T06:52:38;1.60;99.90
34985;DHT22;21190;58.750;17.004;2023-11-21T06:55:06;1.60;99.90
34985;DHT22;21190;58.750;17.004;2023-11-21T06:57:36;1.60;99.90
34985;DHT22;21190;58.750;17.004;2023-11-21T07:00:03;1.60;99.90
34985;DHT22;21190;58.750;17.004;2023-11-21T07:02:30;1.60;99.90
34985;DHT22;21190;58.750;17.004;2023-11-21T07:04:58;1.60;99.90
34985;DHT22;21190;58.750;17.004;2023-11-21T07:07:25;1.60;99.90
34985;DHT22;21190;58.750;17.004;2023-11-21T07:09:52;1.50;99.90
34985;DHT22;21190;58.750;17.004;2023-11-21T07:12:19;1.60;99.90
34985;DHT22;21190;58.750;17.004;2023-11-21T07:14:46;1.60;99.90
34985;DHT22;21190;58.750;17.004;2023-11-21T07:17:13;1.60;99.90
34985;DHT22;21190;58.750;17.004;2023-11-21T07:19:40;1.60;99.90
34985;DHT22;21190;58.750;17.004;2023-11-21T07:22:08;1.60;99.90
34985;DHT22;21190;58.750;17.004;2023-11-21T07:24:36;1.60;99.90
34985;DHT22;21190;58.750;17.004;2023-11-21T07:27:03;1.60;99.90
34985;DHT22;21190;58.750;17.004;2023-11-21T07:29:30;1.50;99.90
34985;DHT22;21190;58.750;17.004;2023-11-21T07:31:58;1.60;99.90
34985;DHT22;21190;58.750;17.004;2023-11-21T07:34:25;1.50;99.90
34985;DHT22;21190;58.750;17.004;2023-11-21T07:36:52;1.50;99.90
34985;DHT22;21190;58.750;17.004;2023-11-21T07:39:19;1.50;99.90
34985;DHT22;21190;58.750;17.004;2023-11-21T07:41:46;1.50;99.90
34985;DHT22;21190;58.750;17.004;2023-11-21T07:44:18;1.50;99.90
34985;DHT22;21190;58.750;17.004;2023-11-21T07:46:47;1.50;99.90
34985;DHT22;21190;58.750;17.004;2023-11-21T07:49:14;1.40;99.90
34985;DHT22;21190;58.750;17.004;2023-11-21T07:51:43;1.50;99.90
34985;DHT22;21190;58.750;17.004;2023-11-21T07:54:11;1.50;99.90
34985;DHT22;21190;58.750;17.004;2023-11-21T07:56:38;1.60;99.90
34985;DHT22;21190;58.750;17.004;2023-11-21T07:59:05;1.50;99.90
34985;DHT22;21190;58.750;17.004;2023-11-21T08:01:32;1.50;99.90
34985;DHT22;21190;58.750;17.004;2023-11-21T08:04:00;1.50;99.90
34985;DHT22;21190;58.750;17.004;2023-11-21T08:06:31;1.50;99.90
34985;DHT22;21190;58.750;17.004;2023-11-21T08:08:58;1.50;99.90
34985;DHT22;21190;58.750;17.004;2023-11-21T08:11:25;1.40;99.90
34985;DHT22;21190;58.750;17.004;2023-11-21T08:13:57;1.40;99.90
34985;DHT22;21190;58.750;17.004;2023-11-21T08:16:26;1.40;99.90
34985;DHT22;21190;58.750;17.004;2023-11-21T08:18:54;1.40;99.90
34985;DHT22;21190;58.750;17.004;2023-11-21T08:21:21;1.40;99.90
34985;DHT22;21190;58.750;17.004;2023-11-21T08:23:50;1.30;99.90
34985;DHT22;21190;58.750;17.004;2023-11-21T08:26:21;1.30;99.90
34985;DHT22;21190;58.750;17.004;2023-11-21T08:28:49;1.40;99.90
34985;DHT22;21190;58.750;17.004;2023-11-21T08:31:24;1.40;99.90
34985;DHT22;21190;58.750;17.004;2023-11-21T08:33:52;1.40;99.90
34985;DHT22;21190;58.750;17.004;2023-11-21T08:36:22;1.40;99.90
34985;DHT22;21190;58.750;17.004;2023-11-21T08:38:51;1.40;99.90
34985;DHT22;21190;58.750;17.004;2023-11-21T08:41:21;1.40;99.90
34985;DHT22;21190;58.750;17.004;2023-11-21T08:43:50;1.40;99.90
34985;DHT22;21190;58.750;17.004;2023-11-21T08:46:17;1.50;99.90
34985;DHT22;21190;58.750;17.004;2023-11-21T08:48:45;1.50;99.90
34985;DHT22;21190;58.750;17.004;2023-11-21T08:51:12;1.50;99.90
34985;DHT22;21190;58.750;17.004;2023-11-21T08:53:41;1.40;99.90
34985;DHT22;21190;58.750;17.004;2023-11-21T08:56:11;1.50;99.90
34985;DHT22;21190;58.750;17.004;2023-11-21T08:58:39;1.50;99.90
34985;DHT22;21190;58.750;17.004;2023-11-21T09:01:06;1.50;99.90
34985;DHT22;21190;58.750;17.004;2023-11-21T09:03:34;1.50;99.90
34985;DHT22;21190;58.750;17.004;2023-11-21T09:06:01;1.50;99.90
34985;DHT22;21190;58.750;17.004;2023-11-21T09:08:28;1.50;99.90
34985;DHT22;21190;58.750;17.004;2023-11-21T09:10:56;1.50;99.90
34985;DHT22;21190;58.750;17.004;2023-11-21T09:13:23;1.50;99.90
34985;DHT22;21190;58.750;17.004;2023-11-21T09:15:52;1.50;99.90
34985;DHT22;21190;58.750;17.004;2023-11-21T09:18:19;1.60;99.90
34985;DHT22;21190;58.750;17.004;2023-11-21T09:20:46;1.60;99.90
34985;DHT22;21190;58.750;17.004;2023-11-21T09:23:13;1.50;99.90
34985;DHT22;21190;58.750;17.004;2023-11-21T09:25:40;1.50;99.90
34985;DHT22;21190;58.750;17.004;2023-11-21T09:28:07;1.50;99.90
34985;DHT22;21190;58.750;17.004;2023-11-21T09:30:35;1.50;99.90
34985;DHT22;21190;58.750;17.004;2023-11-21T09:33:03;1.50;99.90
34985;DHT22;21190;58.750;17.004;2023-11-21T09:35:34;1.40;99.90
34985;DHT22;21190;58.750;17.004;2023-11-21T09:38:01;1.40;99.90
34985;DHT22;21190;58.750;17.004;2023-11-21T09:40:32;1.30;99.90
34985;DHT22;21190;58.750;17.004;2023-11-21T09:43:00;1.30;99.90
34985;DHT22;21190;58.750;17.004;2023-11-21T09:45:34;1.40;99.90
34985;DHT22;21190;58.750;17.004;2023-11-21T09:48:01;1.40;99.90
34985;DHT22;21190;58.750;17.004;2023-11-21T09:50:29;1.40;99.90
34985;DHT22;21190;58.750;17.004;2023-11-21T09:53:13;1.40;99.90
34985;DHT22;21190;58.750;17.004;2023-11-21T09:55:44;1.40;99.90
34985;DHT22;21190;58.750;17.004;2023-11-21T09:58:11;1.40;99.90
34985;DHT22;21190;58.750;17.004;2023-11-21T10:00:43;1.40;99.90
34985;DHT22;21190;58.750;17.004;2023-11-21T10:03:11;1.40;99.90
34985;DHT22;21190;58.750;17.004;2023-11-21T10:05:43;1.50;99.90
34985;DHT22;21190;58.750;17.004;2023-11-21T10:08:12;1.50;99.90
34985;DHT22;21190;58.750;17.004;2023-11-21T10:10:46;1.40;99.90
34985;DHT22;21190;58.750;17.004;2023-11-21T10:13:17;1.40;99.90
34985;DHT22;21190;58.750;17.004;2023-11-21T10:15:52;1.40;99.90
34985;DHT22;21190;58.750;17.004;2023-11-21T10:18:20;1.40;99.90
34985;DHT22;21190;58.750;17.004;2023-11-21T10:20:50;1.30;99.90
34985;DHT22;21190;58.750;17.004;2023-11-21T10:23:21;1.30;99.90
34985;DHT22;21190;58.750;17.004;2023-11-21T10:25:51;1.30;99.90
34985;DHT22;21190;58.750;17.004;2023-11-21T10:28:19;1.30;99.90
34985;DHT22;21190;58.750;17.004;2023-11-21T10:30:48;1.20;99.90
34985;DHT22;21190;58.750;17.004;2023-11-21T10:33:15;1.20;99.90
34985;DHT22;21190;58.750;17.004;2023-11-21T10:35:48;1.20;99.90
34985;DHT22;21190;58.750;17.004;2023-11-21T10:38:21;1.30;99.90
34985;DHT22;21190;58.750;17.004;2023-11-21T10:40:50;1.30;99.90
34985;DHT22;21190;58.750;17.004;2023-11-21T10:43:17;1.30;99.90
34985;DHT22;21190;58.750;17.004;2023-11-21T10:45:45;1.20;99.90
34985;DHT22;21190;58.750;17.004;2023-11-21T10:48:14;1.10;99.90
34985;DHT22;21190;58.750;17.004;2023-11-21T10:50:46;1.20;99.90
34985;DHT22;21190;58.750;17.004;2023-11-21T10:53:13;1.20;99.90
34985;DHT22;21190;58.750;17.004;2023-11-21T10:55:41;1.20;99.90
34985;DHT22;21190;58.750;17.004;2023-11-21T10:58:10;1.20;99.90
34985;DHT22;21190;58.750;17.004;2023-11-21T11:00:40;1.20;99.90
34985;DHT22;21190;58.750;17.004;2023-11-21T11:03:08;1.20;99.90
34985;DHT22;21190;58.750;17.004;2023-11-21T11:05:46;1.10;99.90
34985;DHT22;21190;58.750;17.004;2023-11-21T11:08:21;1.10;99.90
34985;DHT22;21190;58.750;17.004;2023-11-21T11:10:54;1.00;99.90
34985;DHT22;21190;58.750;17.004;2023-11-21T11:13:22;1.00;99.90
34985;DHT22;21190;58.750;17.004;2023-11-21T11:15:50;1.00;99.90
34985;DHT22;21190;58.750;17.004;2023-11-21T11:18:18;1.00;99.90
34985;DHT22;21190;58.750;17.004;2023-11-21T11:20:50;1.00;99.90
34985;DHT22;21190;58.750;17.004;2023-11-21T11:26:40;1.00;99.90
34985;DHT22;21190;58.750;17.004;2023-11-21T11:32:16;1.00;99.90
34985;DHT22;21190;58.750;17.004;2023-11-21T11:34:54;1.00;99.90
34985;DHT22;21190;58.750;17.004;2023-11-21T11:37:24;1.00;99.90
34985;DHT22;21190;58.750;17.004;2023-11-21T11:39:52;1.00;99.90
34985;DHT22;21190;58.750;17.004;2023-11-21T11:42:22;0.90;99.90
34985;DHT22;21190;58.750;17.004;2023-11-21T11:44:51;1.00;99.90
34985;DHT22;21190;58.750;17.004;2023-11-21T11:47:24;1.00;99.90
34985;DHT22;21190;58.750;17.004;2023-11-21T11:49:57;0.90;99.90
34985;DHT22;21190;58.750;17.004;2023-11-21T11:52:35;0.90;99.90
34985;DHT22;21190;58.750;17.004;2023-11-21T11:55:03;0.90;99.90
34985;DHT22;21190;58.750;17.004;2023-11-21T11:57:34;0.90;99.90
34985;DHT22;21190;58.750;17.004;2023-11-21T12:02:39;0.90;99.90
34985;DHT22;21190;58.750;17.004;2023-11-21T12:05:12;0.90;99.90
34985;DHT22;21190;58.750;17.004;2023-11-21T12:07:56;0.90;99.90
34985;DHT22;21190;58.750;17.004;2023-11-21T12:10:26;0.90;99.90
34985;DHT22;21190;58.750;17.004;2023-11-21T12:12:57;0.90;99.90
34985;DHT22;21190;58.750;17.004;2023-11-21T12:15:25;1.00;99.90
34985;DHT22;21190;58.750;17.004;2023-11-21T12:17:56;0.90;99.90
34985;DHT22;21190;58.750;17.004;2023-11-21T12:20:24;1.00;99.90
34985;DHT22;21190;58.750;17.004;2023-11-21T12:22:53;1.00;99.90
34985;DHT22;21190;58.750;17.004;2023-11-21T12:25:22;1.00;99.90
34985;DHT22;21190;58.750;17.004;2023-11-21T12:27:50;0.90;99.90
34985;DHT22;21190;58.750;17.004;2023-11-21T12:30:22;1.00;99.90
34985;DHT22;21190;58.750;17.004;2023-11-21T12:32:54;1.00;99.90
34985;DHT22;21190;58.750;17.004;2023-11-21T12:35:24;1.00;99.90
34985;DHT22;21190;58.750;17.004;2023-11-21T12:37:52;1.00;99.90
34985;DHT22;21190;58.750;17.004;2023-11-21T12:40:21;1.10;99.90
34985;DHT22;21190;58.750;17.004;2023-11-21T12:42:54;1.10;99.90
34985;DHT22;21190;58.750;17.004;2023-11-21T12:45:25;1.10;99.90
34985;DHT22;21190;58.750;17.004;2023-11-21T12:50:29;1.10;99.90
34985;DHT22;21190;58.750;17.004;2023-11-21T12:53:05;1.10;99.90
34985;DHT22;21190;58.750;17.004;2023-11-21T12:55:34;1.10;99.90
34985;DHT22;21190;58.750;17.004;2023-11-21T12:58:09;1.10;99.90
34985;DHT22;21190;58.750;17.004;2023-11-21T13:00:48;1.00;99.90
34985;DHT22;21190;58.750;17.004;2023-11-21T13:03:17;1.00;99.90
34985;DHT22;21190;58.750;17.004;2023-11-21T13:05:48;1.00;99.90
34985;DHT22;21190;58.750;17.004;2023-11-21T13:08:23;1.00;99.90
34985;DHT22;21190;58.750;17.004;2023-11-21T13:10:56;1.00;99.90
34985;DHT22;21190;58.750;17.004;2023-11-21T13:13:25;1.10;99.90
34985;DHT22;21190;58.750;17.004;2023-11-21T13:15:59;1.00;99.90
34985;DHT22;21190;58.750;17.004;2023-11-21T13:18:33;1.10;99.90
34985;DHT22;21190;58.750;17.004;2023-11-21T13:21:02;1.10;99.90
34985;DHT22;21190;58.750;17.004;2023-11-21T13:23:44;1.00;99.90
34985;DHT22;21190;58.750;17.004;2023-11-21T13:26:13;1.00;99.90
34985;DHT22;21190;58.750;17.004;2023-11-21T13:28:42;1.00;99.90
34985;DHT22;21190;58.750;17.004;2023-11-21T13:31:13;1.10;99.90
34985;DHT22;21190;58.750;17.004;2023-11-21T13:33:53;1.00;99.90
34985;DHT22;21190;58.750;17.004;2023-11-21T13:36:26;1.10;99.90
34985;DHT22;21190;58.750;17.004;2023-11-21T13:38:57;1.10;99.90
34985;DHT22;21190;58.750;17.004;2023-11-21T13:41:25;1.10;99.90
34985;DHT22;21190;58.750;17.004;2023-11-21T13:43:58;1.10;99.90
34985;DHT22;21190;58.750;17.004;2023-11-21T13:46:54;1.10;99.90
34985;DHT22;21190;58.750;17.004;2023-11-21T13:49:23;1.10;99.90
34985;DHT22;21190;58.750;17.004;2023-11-21T13:51:51;1.10;99.90
34985;DHT22;21190;58.750;17.004;2023-11-21T13:54:21;1.10;99.90
34985;DHT22;21190;58.750;17.004;2023-11-21T13:56:50;1.10;99.90
34985;DHT22;21190;58.750;17.004;2023-11-21T13:59:17;1.10;99.90
34985;DHT22;21190;58.750;17.004;2023-11-21T14:01:53;1.10;99.90
34985;DHT22;21190;58.750;17.004;2023-11-21T14:04:23;1.20;99.90
34985;DHT22;21190;58.750;17.004;2023-11-21T14:06:59;1.10;99.90
34985;DHT22;21190;58.750;17.004;2023-11-21T14:09:37;1.10;99.90
34985;DHT22;21190;58.750;17.004;2023-11-21T14:12:11;1.10;99.90
34985;DHT22;21190;58.750;17.004;2023-11-21T14:14:41;1.10;99.90
34985;DHT22;21190;58.750;17.004;2023-11-21T14:17:08;1.10;99.90
34985;DHT22;21190;58.750;17.004;2023-11-21T14:19:37;1.00;99.90
34985;DHT22;21190;58.750;17.004;2023-11-21T14:22:07;1.00;99.90
34985;DHT22;21190;58.750;17.004;2023-11-21T14:24:37;1.00;99.90
34985;DHT22;21190;58.750;17.004;2023-11-21T14:27:04;1.10;99.90
34985;DHT22;21190;58.750;17.004;2023-11-21T14:29:32;1.10;99.90
34985;DHT22;21190;58.750;17.004;2023-11-21T14:32:05;1.00;99.90
34985;DHT22;21190;58.750;17.004;2023-11-21T14:34:33;0.90;99.90
34985;DHT22;21190;58.750;17.004;2023-11-21T14:37:00;0.90;99.90
34985;DHT22;21190;58.750;17.004;2023-11-21T14:39:29;0.90;99.90
34985;DHT22;21190;58.750;17.004;2023-11-21T14:41:57;0.80;99.90
34985;DHT22;21190;58.750;17.004;2023-11-21T14:44:25;0.80;99.90
34985;DHT22;21190;58.750;17.004;2023-11-21T14:46:56;0.80;99.90
34985;DHT22;21190;58.750;17.004;2023-11-21T14:49:25;0.80;99.90
34985;DHT22;21190;58.750;17.004;2023-11-21T14:51:55;0.80;99.90
34985;DHT22;21190;58.750;17.004;2023-11-21T14:54:30;0.70;99.90
34985;DHT22;21190;58.750;17.004;2023-11-21T14:57:13;0.80;99.90
34985;DHT22;21190;58.750;17.004;2023-11-21T14:59:46;0.70;99.90
34985;DHT22;21190;58.750;17.004;2023-11-21T15:02:25;0.80;99.90
34985;DHT22;21190;58.750;17.004;2023-11-21T15:05:11;0.80;99.90
34985;DHT22;21190;58.750;17.004;2023-11-21T15:07:43;0.70;99.90
34985;DHT22;21190;58.750;17.004;2023-11-21T15:10:12;0.70;99.90
34985;DHT22;21190;58.750;17.004;2023-11-21T15:12:43;0.70;99.90
34985;DHT22;21190;58.750;17.004;2023-11-21T15:15:11;0.70;99.90
34985;DHT22;21190;58.750;17.004;2023-11-21T15:17:41;0.60;99.90
34985;DHT22;21190;58.750;17.004;2023-11-21T15:20:11;0.70;99.90
34985;DHT22;21190;58.750;17.004;2023-11-21T15:22:45;0.70;99.90
34985;DHT22;21190;58.750;17.004;2023-11-21T15:25:13;0.60;99.90
34985;DHT22;21190;58.750;17.004;2023-11-21T15:27:40;0.60;99.90
34985;DHT22;21190;58.750;17.004;2023-11-21T15:30:08;0.60;99.90
34985;DHT22;21190;58.750;17.004;2023-11-21T15:32:35;0.70;99.90
34985;DHT22;21190;58.750;17.004;2023-11-21T15:35:02;0.70;99.90
34985;DHT22;21190;58.750;17.004;2023-11-21T15:37:29;0.60;99.90
34985;DHT22;21190;58.750;17.004;2023-11-21T15:39:57;0.60;99.90
34985;DHT22;21190;58.750;17.004;2023-11-21T15:42:24;0.60;99.90
34985;DHT22;21190;58.750;17.004;2023-11-21T15:44:51;0.60;99.90
34985;DHT22;21190;58.750;17.004;2023-11-21T15:47:18;0.60;99.90
34985;DHT22;21190;58.750;17.004;2023-11-21T15:49:46;0.60;99.90
34985;DHT22;21190;58.750;17.004;2023-11-21T15:52:17;0.70;99.90